sensor_id;sensor_type;location;lat;lon;timestamp;pressure;altitude;pressure_sealevel;temperature;humidity
44457;BME280;30159;49.316;8.558;2023-02-04T00:00:10;101766.47;;;10.13;100.00
44457;BME280;30159;49.316;8.558;2023-02-04T00:02:38;101757.09;;;10.16;100.00
44457;BME280;30159;49.316;8.558;2023-02-04T00:05:04;101771.63;;;10.15;100.00
44457;BME280;30159;49.316;8.558;2023-02-04T00:07:32;101758.06;;;10.09;100.00
44457;BME280;30159;49.316;8.558;2023-02-04T00:09:59;101681.34;;;9.55;100.00
44457;BME280;30159;49.316;8.558;2023-02-04T00:12:26;101767.88;;;10.16;100.00
44457;BME280;30159;49.316;8.558;2023-02-04T00:14:53;101766.09;;;10.21;100.00
44457;BME280;30159;49.316;8.558;2023-02-04T00:17:19;101759.97;;;10.26;100.00
44457;BME280;30159;49.316;8.558;2023-02-04T00:19:46;101760.84;;;10.15;100.00
44457;BME280;30159;49.316;8.558;2023-02-04T00:22:13;101682.16;;;9.55;100.00
44457;BME280;30159;49.316;8.558;2023-02-04T00:24:41;101780.63;;;10.20;100.00
44457;BME280;30159;49.316;8.558;2023-02-04T00:27:12;101784.84;;;10.16;100.00
44457;BME280;30159;49.316;8.558;2023-02-04T00:29:39;101793.66;;;10.11;100.00
44457;BME280;30159;49.316;8.558;2023-02-04T00:32:05;101794.06;;;10.03;100.00
44457;BME280;30159;49.316;8.558;2023-02-04T00:34:32;101793.25;;;10.03;100.00
44457;BME280;30159;49.316;8.558;2023-02-04T00:36:58;101810.47;;;10.02;100.00
44457;BME280;30159;49.316;8.558;2023-02-04T00:39:25;101809.66;;;10.01;100.00
44457;BME280;30159;49.316;8.558;2023-02-04T00:41:53;101811.31;;;10.02;100.00
44457;BME280;30159;49.316;8.558;2023-02-04T00:44:20;101811.63;;;10.06;100.00
44457;BME280;30159;49.316;8.558;2023-02-04T00:46:46;101824.78;;;10.02;100.00
44457;BME280;30159;49.316;8.558;2023-02-04T00:49:13;101819.63;;;10.01;100.00
44457;BME280;30159;49.316;8.558;2023-02-04T00:51:40;101818.47;;;9.97;100.00
44457;BME280;30159;49.316;8.558;2023-02-04T00:54:11;101818.97;;;9.94;100.00
44457;BME280;30159;49.316;8.558;2023-02-04T00:56:37;101816.84;;;9.96;100.00
44457;BME280;30159;49.316;8.558;2023-02-04T00:59:05;101809.81;;;9.95;100.00
44457;BME280;30159;49.316;8.558;2023-02-04T01:01:32;101813.34;;;9.83;100.00
44457;BME280;30159;49.316;8.558;2023-02-04T01:03:59;101826.94;;;9.88;100.00
44457;BME280;30159;49.316;8.558;2023-02-04T01:06:26;101822.03;;;9.85;100.00
44457;BME280;30159;49.316;8.558;2023-02-04T01:08:52;101817.69;;;9.84;100.00
44457;BME280;30159;49.316;8.558;2023-02-04T01:11:19;101811.69;;;9.94;100.00
44457;BME280;30159;49.316;8.558;2023-02-04T01:13:45;101811.47;;;9.96;100.00
44457;BME280;30159;49.316;8.558;2023-02-04T01:16:13;101818.47;;;9.97;100.00
44457;BME280;30159;49.316;8.558;2023-02-04T01:18:40;101816.44;;;10.04;100.00
44457;BME280;30159;49.316;8.558;2023-02-04T01:21:07;101825.84;;;10.01;100.00
44457;BME280;30159;49.316;8.558;2023-02-04T01:23:33;101825.50;;;9.98;100.00
44457;BME280;30159;49.316;8.558;2023-02-04T01:26:00;101828.94;;;9.93;100.00
44457;BME280;30159;49.316;8.558;2023-02-04T01:28:27;101840.03;;;9.97;100.00
44457;BME280;30159;49.316;8.558;2023-02-04T01:30:53;101827.13;;;9.99;100.00
44457;BME280;30159;49.316;8.558;2023-02-04T01:33:21;101841.06;;;10.07;100.00
44457;BME280;30159;49.316;8.558;2023-02-04T01:35:48;101836.13;;;10.04;100.00
44457;BME280;30159;49.316;8.558;2023-02-04T01:38:14;101832.03;;;10.02;100.00
44457;BME280;30159;49.316;8.558;2023-02-04T01:40:41;101848.69;;;9.99;100.00
44457;BME280;30159;49.316;8.558;2023-02-04T01:43:09;101845.53;;;10.02;100.00
44457;BME280;30159;49.316;8.558;2023-02-04T01:45:37;101855.16;;;9.98;100.00
44457;BME280;30159;49.316;8.558;2023-02-04T01:48:04;101848.13;;;9.97;100.00
44457;BME280;30159;49.316;8.558;2023-02-04T01:50:33;101844.03;;;9.94;100.00
44457;BME280;30159;49.316;8.558;2023-02-04T01:53:00;101842.06;;;9.89;100.00
44457;BME280;30159;49.316;8.558;2023-02-04T01:55:29;101851.66;;;9.85;100.00
44457;BME280;30159;49.316;8.558;2023-02-04T01:57:57;101859.53;;;9.75;100.00
44457;BME280;30159;49.316;8.558;2023-02-04T02:00:26;101852.78;;;9.61;100.00
44457;BME280;30159;49.316;8.558;2023-02-04T02:02:53;101858.06;;;9.56;100.00
44457;BME280;30159;49.316;8.558;2023-02-04T02:05:22;101862.38;;;9.57;100.00
44457;BME280;30159;49.316;8.558;2023-02-04T02:07:53;101865.06;;;9.57;100.00
44457;BME280;30159;49.316;8.558;2023-02-04T02:10:21;101865.19;;;9.62;100.00
44457;BME280;30159;49.316;8.558;2023-02-04T02:12:49;101865.56;;;9.54;100.00
44457;BME280;30159;49.316;8.558;2023-02-04T02:15:17;101875.28;;;9.43;100.00
44457;BME280;30159;49.316;8.558;2023-02-04T02:17:44;101883.00;;;9.39;100.00
44457;BME280;30159;49.316;8.558;2023-02-04T02:20:13;101893.91;;;9.21;100.00
44457;BME280;30159;49.316;8.558;2023-02-04T02:22:47;101889.66;;;9.13;100.00
44457;BME280;30159;49.316;8.558;2023-02-04T02:25:17;101895.09;;;8.83;100.00
44457;BME280;30159;49.316;8.558;2023-02-04T02:27:43;101903.56;;;8.56;100.00
44457;BME280;30159;49.316;8.558;2023-02-04T02:30:11;101771.81;;;7.66;100.00
44457;BME280;30159;49.316;8.558;2023-02-04T02:32:39;101914.41;;;8.31;100.00
44457;BME280;30159;49.316;8.558;2023-02-04T02:35:07;101916.44;;;8.17;100.00
44457;BME280;30159;49.316;8.558;2023-02-04T02:37:33;101910.78;;;8.07;100.00
44457;BME280;30159;49.316;8.558;2023-02-04T02:40:00;101933.78;;;8.03;100.00
44457;BME280;30159;49.316;8.558;2023-02-04T02:42:29;101919.75;;;8.01;100.00
44457;BME280;30159;49.316;8.558;2023-02-04T02:44:56;101924.09;;;8.02;100.00
44457;BME280;30159;49.316;8.558;2023-02-04T02:47:24;101933.38;;;7.99;100.00
44457;BME280;30159;49.316;8.558;2023-02-04T02:49:52;101928.78;;;8.07;100.00
44457;BME280;30159;49.316;8.558;2023-02-04T02:52:20;101923.91;;;8.15;100.00
44457;BME280;30159;49.316;8.558;2023-02-04T02:54:47;101942.06;;;8.20;100.00
44457;BME280;30159;49.316;8.558;2023-02-04T02:57:16;101934.72;;;8.27;100.00
44457;BME280;30159;49.316;8.558;2023-02-04T02:59:44;101938.09;;;8.22;100.00
44457;BME280;30159;49.316;8.558;2023-02-04T03:02:13;101937.28;;;8.22;100.00
44457;BME280;30159;49.316;8.558;2023-02-04T03:04:43;101924.50;;;8.17;100.00
44457;BME280;30159;49.316;8.558;2023-02-04T03:07:11;101941.75;;;8.28;100.00
44457;BME280;30159;49.316;8.558;2023-02-04T03:09:39;101946.69;;;8.31;100.00
44457;BME280;30159;49.316;8.558;2023-02-04T03:12:06;101945.66;;;8.14;100.00
44457;BME280;30159;49.316;8.558;2023-02-04T03:14:35;101955.72;;;8.00;100.00
44457;BME280;30159;49.316;8.558;2023-02-04T03:17:05;101958.63;;;7.98;100.00
44457;BME280;30159;49.316;8.558;2023-02-04T03:19:32;101942.97;;;7.95;100.00
44457;BME280;30159;49.316;8.558;2023-02-04T03:22:01;101963.78;;;8.00;100.00
44457;BME280;30159;49.316;8.558;2023-02-04T03:24:28;101965.72;;;7.93;100.00
44457;BME280;30159;49.316;8.558;2023-02-04T03:26:55;101962.19;;;7.92;100.00
44457;BME280;30159;49.316;8.558;2023-02-04T03:29:22;101954.13;;;7.92;100.00
44457;BME280;30159;49.316;8.558;2023-02-04T03:31:48;101963.25;;;7.91;100.00
44457;BME280;30159;49.316;8.558;2023-02-04T03:34:16;101960.41;;;7.86;100.00
44457;BME280;30159;49.316;8.558;2023-02-04T03:36:43;101973.59;;;7.88;100.00
44457;BME280;30159;49.316;8.558;2023-02-04T03:39:09;101977.06;;;7.95;100.00
44457;BME280;30159;49.316;8.558;2023-02-04T03:41:36;101978.09;;;7.94;100.00
44457;BME280;30159;49.316;8.558;2023-02-04T03:44:03;101974.00;;;7.91;100.00
44457;BME280;30159;49.316;8.558;2023-02-04T03:46:29;101976.84;;;7.96;100.00
44457;BME280;30159;49.316;8.558;2023-02-04T03:48:56;101974.97;;;7.97;100.00
44457;BME280;30159;49.316;8.558;2023-02-04T03:51:24;101974.16;;;7.96;100.00
44457;BME280;30159;49.316;8.558;2023-02-04T03:53:51;101969.16;;;8.00;100.00
44457;BME280;30159;49.316;8.558;2023-02-04T03:56:17;101974.53;;;8.00;100.00
44457;BME280;30159;49.316;8.558;2023-02-04T03:58:44;101967.34;;;7.94;100.00
44457;BME280;30159;49.316;8.558;2023-02-04T04:01:10;101967.75;;;7.97;100.00
44457;BME280;30159;49.316;8.558;2023-02-04T04:03:37;101971.53;;;7.90;100.00
44457;BME280;30159;49.316;8.558;2023-02-04T04:06:04;101987.69;;;7.83;100.00
44457;BME280;30159;49.316;8.558;2023-02-04T04:08:34;101986.69;;;7.84;100.00
44457;BME280;30159;49.316;8.558;2023-02-04T04:11:01;101990.09;;;7.73;100.00
44457;BME280;30159;49.316;8.558;2023-02-04T04:13:27;102001.28;;;7.70;100.00
44457;BME280;30159;49.316;8.558;2023-02-04T04:15:54;101999.63;;;7.69;100.00
44457;BME280;30159;49.316;8.558;2023-02-04T04:18:20;101996.88;;;7.75;100.00
44457;BME280;30159;49.316;8.558;2023-02-04T04:20:47;102007.16;;;7.78;100.00
44457;BME280;30159;49.316;8.558;2023-02-04T04:23:13;102001.75;;;7.85;100.00
44457;BME280;30159;49.316;8.558;2023-02-04T04:25:41;101994.06;;;7.89;100.00
44457;BME280;30159;49.316;8.558;2023-02-04T04:28:08;101984.75;;;7.91;100.00
44457;BME280;30159;49.316;8.558;2023-02-04T04:30:34;101993.94;;;7.84;100.00
44457;BME280;30159;49.316;8.558;2023-02-04T04:33:01;101995.25;;;7.74;100.00
44457;BME280;30159;49.316;8.558;2023-02-04T04:35:27;101999.84;;;7.67;100.00
44457;BME280;30159;49.316;8.558;2023-02-04T04:37:54;101997.78;;;7.69;100.00
44457;BME280;30159;49.316;8.558;2023-02-04T04:40:20;102003.16;;;7.69;100.00
44457;BME280;30159;49.316;8.558;2023-02-04T04:42:48;102003.56;;;7.66;100.00
44457;BME280;30159;49.316;8.558;2023-02-04T04:45:15;101997.22;;;7.60;100.00
44457;BME280;30159;49.316;8.558;2023-02-04T04:47:41;102010.38;;;7.69;100.00
44457;BME280;30159;49.316;8.558;2023-02-04T04:50:10;102005.84;;;7.69;100.00
44457;BME280;30159;49.316;8.558;2023-02-04T04:52:37;102000.88;;;7.66;100.00
44457;BME280;30159;49.316;8.558;2023-02-04T04:55:04;102010.16;;;7.70;100.00
44457;BME280;30159;49.316;8.558;2023-02-04T04:57:31;102015.53;;;7.70;100.00
44457;BME280;30159;49.316;8.558;2023-02-04T04:59:59;102011.41;;;7.68;100.00
44457;BME280;30159;49.316;8.558;2023-02-04T05:02:25;102014.91;;;7.68;100.00
44457;BME280;30159;49.316;8.558;2023-02-04T05:04:52;102011.25;;;7.63;100.00
44457;BME280;30159;49.316;8.558;2023-02-04T05:07:19;102011.25;;;7.63;100.00
44457;BME280;30159;49.316;8.558;2023-02-04T05:09:45;102022.97;;;7.68;100.00
44457;BME280;30159;49.316;8.558;2023-02-04T05:12:12;102006.03;;;7.68;100.00
44457;BME280;30159;49.316;8.558;2023-02-04T05:14:38;102019.69;;;7.66;100.00
44457;BME280;30159;49.316;8.558;2023-02-04T05:17:06;102016.78;;;7.68;100.00
44457;BME280;30159;49.316;8.558;2023-02-04T05:19:33;102022.16;;;7.68;100.00
44457;BME280;30159;49.316;8.558;2023-02-04T05:21:59;102013.91;;;7.69;100.00
44457;BME280;30159;49.316;8.558;2023-02-04T05:24:26;102019.84;;;7.71;100.00
44457;BME280;30159;49.316;8.558;2023-02-04T05:26:53;102018.97;;;7.77;100.00
44457;BME280;30159;49.316;8.558;2023-02-04T05:29:19;101981.44;;;7.46;100.00
44457;BME280;30159;49.316;8.558;2023-02-04T05:31:46;102021.09;;;7.69;100.00
44457;BME280;30159;49.316;8.558;2023-02-04T05:34:14;102021.50;;;7.72;100.00
44457;BME280;30159;49.316;8.558;2023-02-04T05:36:40;102018.88;;;7.66;100.00
44457;BME280;30159;49.316;8.558;2023-02-04T05:39:07;102024.44;;;7.64;100.00
44457;BME280;30159;49.316;8.558;2023-02-04T05:41:33;102030.88;;;7.63;100.00
44457;BME280;30159;49.316;8.558;2023-02-04T05:44:00;102020.56;;;7.60;100.00
44457;BME280;30159;49.316;8.558;2023-02-04T05:46:26;102041.63;;;7.63;100.00
44457;BME280;30159;49.316;8.558;2023-02-04T05:48:53;102033.72;;;7.68;100.00
44457;BME280;30159;49.316;8.558;2023-02-04T05:51:21;102032.44;;;7.71;100.00
44457;BME280;30159;49.316;8.558;2023-02-04T05:53:47;102049.00;;;7.68;100.00
44457;BME280;30159;49.316;8.558;2023-02-04T05:56:14;102053.63;;;7.60;100.00
44457;BME280;30159;49.316;8.558;2023-02-04T05:58:41;102060.00;;;7.59;100.00
44457;BME280;30159;49.316;8.558;2023-02-04T06:01:07;102061.84;;;7.66;100.00
44457;BME280;30159;49.316;8.558;2023-02-04T06:03:34;102073.47;;;7.53;100.00
44457;BME280;30159;49.316;8.558;2023-02-04T06:06:00;102066.47;;;7.52;100.00
44457;BME280;30159;49.316;8.558;2023-02-04T06:08:28;102065.25;;;7.48;100.00
44457;BME280;30159;49.316;8.558;2023-02-04T06:10:58;102076.03;;;7.41;100.00
44457;BME280;30159;49.316;8.558;2023-02-04T06:13:24;102087.22;;;7.38;100.00
44457;BME280;30159;49.316;8.558;2023-02-04T06:15:51;101979.88;;;6.68;100.00
44457;BME280;30159;49.316;8.558;2023-02-04T06:18:18;102070.94;;;7.33;100.00
44457;BME280;30159;49.316;8.558;2023-02-04T06:20:44;102084.72;;;7.36;100.00
44457;BME280;30159;49.316;8.558;2023-02-04T06:23:11;102095.72;;;7.35;100.00
44457;BME280;30159;49.316;8.558;2023-02-04T06:25:39;102088.06;;;7.32;100.00
44457;BME280;30159;49.316;8.558;2023-02-04T06:28:05;102100.25;;;7.34;100.00
44457;BME280;30159;49.316;8.558;2023-02-04T06:30:32;102103.75;;;7.35;100.00
44457;BME280;30159;49.316;8.558;2023-02-04T06:32:58;102106.91;;;7.25;100.00
44457;BME280;30159;49.316;8.558;2023-02-04T06:35:25;102106.72;;;7.20;100.00
44457;BME280;30159;49.316;8.558;2023-02-04T06:37:51;102104.03;;;7.20;100.00
44457;BME280;30159;49.316;8.558;2023-02-04T06:40:18;102107.94;;;7.24;100.00
44457;BME280;30159;49.316;8.558;2023-02-04T06:42:46;102118.59;;;7.37;100.00
44457;BME280;30159;49.316;8.558;2023-02-04T06:45:13;102115.66;;;7.46;100.00
44457;BME280;30159;49.316;8.558;2023-02-04T06:47:39;102111.94;;;7.47;100.00
44457;BME280;30159;49.316;8.558;2023-02-04T06:50:06;102116.66;;;7.51;100.00
44457;BME280;30159;49.316;8.558;2023-02-04T06:52:34;102125.09;;;7.55;100.00
44457;BME280;30159;49.316;8.558;2023-02-04T06:55:01;102123.63;;;7.59;100.00
44457;BME280;30159;49.316;8.558;2023-02-04T06:57:28;102118.06;;;7.60;100.00
44457;BME280;30159;49.316;8.558;2023-02-04T06:59:56;102122.53;;;7.67;100.00
44457;BME280;30159;49.316;8.558;2023-02-04T07:02:22;102124.81;;;7.70;100.00
44457;BME280;30159;49.316;8.558;2023-02-04T07:04:49;102126.72;;;7.63;100.00
44457;BME280;30159;49.316;8.558;2023-02-04T07:07:15;102126.84;;;7.43;100.00
44457;BME280;30159;49.316;8.558;2023-02-04T07:09:42;102118.06;;;7.22;100.00
44457;BME280;30159;49.316;8.558;2023-02-04T07:12:08;102136.00;;;7.28;100.00
44457;BME280;30159;49.316;8.558;2023-02-04T07:14:35;102145.50;;;7.24;100.00
44457;BME280;30159;49.316;8.558;2023-02-04T07:17:03;102127.22;;;7.08;100.00
44457;BME280;30159;49.316;8.558;2023-02-04T07:19:29;102152.09;;;7.28;100.00
44457;BME280;30159;49.316;8.558;2023-02-04T07:21:56;102149.16;;;7.36;100.00
44457;BME280;30159;49.316;8.558;2023-02-04T07:24:23;102155.75;;;7.41;100.00
44457;BME280;30159;49.316;8.558;2023-02-04T07:26:50;102168.16;;;7.42;100.00
44457;BME280;30159;49.316;8.558;2023-02-04T07:29:17;102174.53;;;7.41;100.00
44457;BME280;30159;49.316;8.558;2023-02-04T07:31:43;102163.59;;;7.42;100.00
44457;BME280;30159;49.316;8.558;2023-02-04T07:34:12;102173.69;;;7.47;100.00
44457;BME280;30159;49.316;8.558;2023-02-04T07:36:39;102153.44;;;7.51;100.00
44457;BME280;30159;49.316;8.558;2023-02-04T07:39:06;102173.53;;;7.73;100.00
44457;BME280;30159;49.316;8.558;2023-02-04T07:41:33;102175.09;;;7.88;100.00
44457;BME280;30159;49.316;8.558;2023-02-04T07:44:00;102182.56;;;8.11;100.00
44457;BME280;30159;49.316;8.558;2023-02-04T07:46:26;102185.97;;;8.24;100.00
44457;BME280;30159;49.316;8.558;2023-02-04T07:48:53;102182.78;;;8.34;100.00
44457;BME280;30159;49.316;8.558;2023-02-04T07:51:21;102193.31;;;8.42;100.00
44457;BME280;30159;49.316;8.558;2023-02-04T07:53:47;102194.13;;;8.43;100.00
44457;BME280;30159;49.316;8.558;2023-02-04T07:56:14;102192.66;;;8.47;100.00
44457;BME280;30159;49.316;8.558;2023-02-04T07:58:41;102172.31;;;8.01;100.00
44457;BME280;30159;49.316;8.558;2023-02-04T08:01:07;102202.66;;;8.08;100.00
44457;BME280;30159;49.316;8.558;2023-02-04T08:03:34;102048.00;;;6.99;100.00
44457;BME280;30159;49.316;8.558;2023-02-04T08:06:00;102189.75;;;7.92;100.00
44457;BME280;30159;49.316;8.558;2023-02-04T08:08:28;102203.25;;;8.10;100.00
44457;BME280;30159;49.316;8.558;2023-02-04T08:10:55;102206.06;;;8.22;100.00
44457;BME280;30159;49.316;8.558;2023-02-04T08:13:22;102210.72;;;8.40;100.00
44457;BME280;30159;49.316;8.558;2023-02-04T08:15:49;102216.56;;;8.55;100.00
44457;BME280;30159;49.316;8.558;2023-02-04T08:18:16;102217.00;;;8.52;100.00
44457;BME280;30159;49.316;8.558;2023-02-04T08:20:42;102215.19;;;8.71;100.00
44457;BME280;30159;49.316;8.558;2023-02-04T08:23:09;102210.75;;;8.83;100.00
44457;BME280;30159;49.316;8.558;2023-02-04T08:25:39;102218.59;;;9.03;100.00
44457;BME280;30159;49.316;8.558;2023-02-04T08:28:06;102219.47;;;9.16;100.00
44457;BME280;30159;49.316;8.558;2023-02-04T08:30:32;102085.56;;;8.44;100.00
44457;BME280;30159;49.316;8.558;2023-02-04T08:32:59;102216.03;;;9.27;100.00
44457;BME280;30159;49.316;8.558;2023-02-04T08:35:25;102217.38;;;9.36;100.00
44457;BME280;30159;49.316;8.558;2023-02-04T08:37:53;102217.50;;;9.60;100.00
44457;BME280;30159;49.316;8.558;2023-02-04T08:40:19;102108.38;;;9.08;100.00
44457;BME280;30159;49.316;8.558;2023-02-04T08:42:47;102240.19;;;9.82;100.00
44457;BME280;30159;49.316;8.558;2023-02-04T08:45:14;102240.97;;;9.71;100.00
44457;BME280;30159;49.316;8.558;2023-02-04T08:47:41;102242.03;;;9.70;100.00
44457;BME280;30159;49.316;8.558;2023-02-04T08:50:09;102246.44;;;9.64;100.00
44457;BME280;30159;49.316;8.558;2023-02-04T08:52:35;102247.25;;;9.65;100.00
44457;BME280;30159;49.316;8.558;2023-02-04T08:55:02;102248.50;;;9.32;100.00
44457;BME280;30159;49.316;8.558;2023-02-04T08:57:29;102226.59;;;9.28;100.00
44457;BME280;30159;49.316;8.558;2023-02-04T08:59:57;102264.56;;;9.39;100.00
44457;BME280;30159;49.316;8.558;2023-02-04T09:02:23;102267.91;;;9.71;100.00
44457;BME280;30159;49.316;8.558;2023-02-04T09:04:50;102267.44;;;9.74;100.00
44457;BME280;30159;49.316;8.558;2023-02-04T09:07:19;102264.69;;;9.81;100.00
44457;BME280;30159;49.316;8.558;2023-02-04T09:09:45;102270.75;;;9.76;100.00
44457;BME280;30159;49.316;8.558;2023-02-04T09:12:12;102273.84;;;9.61;100.00
44457;BME280;30159;49.316;8.558;2023-02-04T09:14:39;102279.31;;;9.55;100.00
44457;BME280;30159;49.316;8.558;2023-02-04T09:17:07;102279.22;;;9.80;100.00
44457;BME280;30159;49.316;8.558;2023-02-04T09:19:33;102282.97;;;9.60;100.00
44457;BME280;30159;49.316;8.558;2023-02-04T09:22:00;102278.97;;;9.51;100.00
44457;BME280;30159;49.316;8.558;2023-02-04T09:24:26;102285.50;;;9.55;100.00
44457;BME280;30159;49.316;8.558;2023-02-04T09:26:53;102279.03;;;9.44;100.00
44457;BME280;30159;49.316;8.558;2023-02-04T09:29:20;102238.09;;;9.36;100.00
44457;BME280;30159;49.316;8.558;2023-02-04T09:31:46;102279.47;;;9.90;100.00
44457;BME280;30159;49.316;8.558;2023-02-04T09:34:14;102282.41;;;9.88;100.00
44457;BME280;30159;49.316;8.558;2023-02-04T09:36:41;102287.88;;;10.30;100.00
44457;BME280;30159;49.316;8.558;2023-02-04T09:39:08;102267.78;;;10.26;96.44
44457;BME280;30159;49.316;8.558;2023-02-04T09:41:37;102281.69;;;10.53;95.61
44457;BME280;30159;49.316;8.558;2023-02-04T09:44:09;102285.34;;;10.59;95.83
44457;BME280;30159;49.316;8.558;2023-02-04T09:46:38;102293.75;;;10.51;93.65
44457;BME280;30159;49.316;8.558;2023-02-04T09:49:08;102116.09;;;8.86;92.06
44457;BME280;30159;49.316;8.558;2023-02-04T09:51:37;102284.94;;;9.83;95.34
44457;BME280;30159;49.316;8.558;2023-02-04T09:54:07;102288.38;;;9.90;96.06
44457;BME280;30159;49.316;8.558;2023-02-04T09:56:36;102287.56;;;10.20;95.15
44457;BME280;30159;49.316;8.558;2023-02-04T09:59:09;102293.56;;;10.64;95.04
44457;BME280;30159;49.316;8.558;2023-02-04T10:01:36;102289.22;;;10.75;89.30
44457;BME280;30159;49.316;8.558;2023-02-04T10:04:03;102300.94;;;10.69;87.19
44457;BME280;30159;49.316;8.558;2023-02-04T10:06:30;102308.56;;;10.60;88.20
44457;BME280;30159;49.316;8.558;2023-02-04T10:08:58;102316.19;;;10.21;88.78
44457;BME280;30159;49.316;8.558;2023-02-04T10:11:25;102283.84;;;9.91;95.72
44457;BME280;30159;49.316;8.558;2023-02-04T10:13:54;102269.56;;;9.72;88.39
44457;BME280;30159;49.316;8.558;2023-02-04T10:16:23;102327.03;;;9.84;87.22
44457;BME280;30159;49.316;8.558;2023-02-04T10:18:55;102315.13;;;9.74;87.09
44457;BME280;30159;49.316;8.558;2023-02-04T10:21:24;102173.50;;;8.99;86.44
44457;BME280;30159;49.316;8.558;2023-02-04T10:23:54;102316.53;;;9.95;85.77
44457;BME280;30159;49.316;8.558;2023-02-04T10:26:25;102312.16;;;9.82;85.21
44457;BME280;30159;49.316;8.558;2023-02-04T10:28:58;102315.59;;;9.70;85.97
44457;BME280;30159;49.316;8.558;2023-02-04T10:31:33;102288.59;;;9.40;84.68
44457;BME280;30159;49.316;8.558;2023-02-04T10:34:20;102324.38;;;9.66;83.52
44457;BME280;30159;49.316;8.558;2023-02-04T10:36:48;102305.78;;;9.39;83.02
44457;BME280;30159;49.316;8.558;2023-02-04T10:39:18;102300.94;;;9.48;85.54
44457;BME280;30159;49.316;8.558;2023-02-04T10:41:48;102310.56;;;9.74;85.02
44457;BME280;30159;49.316;8.558;2023-02-04T10:44:19;102329.28;;;9.69;83.61
44457;BME280;30159;49.316;8.558;2023-02-04T10:46:47;102330.63;;;9.60;83.30
44457;BME280;30159;49.316;8.558;2023-02-04T10:49:17;102190.25;;;8.82;83.33
44457;BME280;30159;49.316;8.558;2023-02-04T10:51:43;102325.81;;;9.99;82.69
44457;BME280;30159;49.316;8.558;2023-02-04T10:54:11;102321.63;;;10.03;81.41
44457;BME280;30159;49.316;8.558;2023-02-04T10:57:01;102319.09;;;10.20;81.79
44457;BME280;30159;49.316;8.558;2023-02-04T10:59:32;102315.59;;;10.19;79.49
44457;BME280;30159;49.316;8.558;2023-02-04T11:02:23;102310.75;;;10.09;80.16
44457;BME280;30159;49.316;8.558;2023-02-04T11:04:55;102320.72;;;10.21;80.67
44457;BME280;30159;49.316;8.558;2023-02-04T11:07:21;102321.06;;;10.31;78.83
44457;BME280;30159;49.316;8.558;2023-02-04T11:09:49;102320.97;;;10.38;75.69
44457;BME280;30159;49.316;8.558;2023-02-04T11:12:22;102324.50;;;10.50;75.32
44457;BME280;30159;49.316;8.558;2023-02-04T11:14:56;102240.41;;;10.11;75.28
44457;BME280;30159;49.316;8.558;2023-02-04T11:17:28;102216.53;;;9.84;73.58
44457;BME280;30159;49.316;8.558;2023-02-04T11:19:55;102319.63;;;10.70;73.98
44457;BME280;30159;49.316;8.558;2023-02-04T11:22:35;102316.56;;;10.79;72.49
44457;BME280;30159;49.316;8.558;2023-02-04T11:25:30;102322.66;;;10.86;71.69
44457;BME280;30159;49.316;8.558;2023-02-04T11:27:58;102314.06;;;10.53;73.17
44457;BME280;30159;49.316;8.558;2023-02-04T11:30:30;102295.53;;;10.45;73.71
44457;BME280;30159;49.316;8.558;2023-02-04T11:33:01;102308.22;;;10.57;75.68
44457;BME280;30159;49.316;8.558;2023-02-04T11:35:28;102189.84;;;9.95;79.42
44457;BME280;30159;49.316;8.558;2023-02-04T11:37:55;102308.47;;;10.79;76.93
44457;BME280;30159;49.316;8.558;2023-02-04T11:40:25;102307.72;;;10.48;78.66
44457;BME280;30159;49.316;8.558;2023-02-04T11:43:02;102311.69;;;10.33;78.46
44457;BME280;30159;49.316;8.558;2023-02-04T11:45:35;102312.59;;;10.09;78.57
44457;BME280;30159;49.316;8.558;2023-02-04T11:48:10;102303.47;;;9.80;76.89
44457;BME280;30159;49.316;8.558;2023-02-04T11:50:38;102312.09;;;9.70;77.89
44457;BME280;30159;49.316;8.558;2023-02-04T11:53:09;102322.78;;;9.77;81.92
44457;BME280;30159;49.316;8.558;2023-02-04T11:55:42;102317.91;;;9.85;79.73
44457;BME280;30159;49.316;8.558;2023-02-04T11:58:13;102315.97;;;10.04;81.79
44457;BME280;30159;49.316;8.558;2023-02-04T12:00:40;102297.53;;;10.20;79.39
44457;BME280;30159;49.316;8.558;2023-02-04T12:03:20;102309.16;;;10.62;81.46
44457;BME280;30159;49.316;8.558;2023-02-04T12:05:47;102301.66;;;10.88;79.08
44457;BME280;30159;49.316;8.558;2023-02-04T12:08:25;102301.22;;;11.03;72.19
44457;BME280;30159;49.316;8.558;2023-02-04T12:11:03;102312.00;;;11.26;70.00
44457;BME280;30159;49.316;8.558;2023-02-04T12:13:33;102304.97;;;11.13;68.66
44457;BME280;30159;49.316;8.558;2023-02-04T12:16:10;102298.38;;;10.97;68.84
44457;BME280;30159;49.316;8.558;2023-02-04T12:18:37;102304.94;;;10.78;69.71
44457;BME280;30159;49.316;8.558;2023-02-04T12:21:07;102321.00;;;10.61;69.63
44457;BME280;30159;49.316;8.558;2023-02-04T12:23:33;102311.22;;;10.37;70.55
44457;BME280;30159;49.316;8.558;2023-02-04T12:26:02;102278.53;;;10.15;69.67
44457;BME280;30159;49.316;8.558;2023-02-04T12:28:29;102303.09;;;10.06;70.36
44457;BME280;30159;49.316;8.558;2023-02-04T12:30:57;102305.84;;;9.88;71.87
44457;BME280;30159;49.316;8.558;2023-02-04T12:33:24;102303.81;;;9.83;71.71
44457;BME280;30159;49.316;8.558;2023-02-04T12:35:52;102172.09;;;8.96;72.14
44457;BME280;30159;49.316;8.558;2023-02-04T12:38:19;102321.44;;;9.67;73.16
44457;BME280;30159;49.316;8.558;2023-02-04T12:40:49;102291.75;;;9.56;72.75
44457;BME280;30159;49.316;8.558;2023-02-04T12:43:15;102295.47;;;9.55;71.97
44457;BME280;30159;49.316;8.558;2023-02-04T12:45:42;102312.91;;;9.70;69.19
44457;BME280;30159;49.316;8.558;2023-02-04T12:48:12;102313.03;;;9.76;66.42
44457;BME280;30159;49.316;8.558;2023-02-04T12:50:41;102308.25;;;9.78;65.19
44457;BME280;30159;49.316;8.558;2023-02-04T12:53:08;102312.88;;;9.89;67.29